createdAt,value
2022-10-20T00:06:32.098Z,14.26
2022-10-20T00:21:34.013Z,14.08
2022-10-20T00:36:35.972Z,13.98
2022-10-20T00:51:38.020Z,13.98
2022-10-20T01:06:40.142Z,13.91
2022-10-20T01:21:49.861Z,13.73
2022-10-20T01:36:59.097Z,13.76
2022-10-20T01:52:01.134Z,13.50
2022-10-20T02:07:19.311Z,13.26
2022-10-20T02:22:22.683Z,13.21
2022-10-20T02:37:24.464Z,13.16
2022-10-20T02:52:26.244Z,13.21
2022-10-20T03:07:28.112Z,13.24
2022-10-20T03:37:36.565Z,13.18
2022-10-20T03:52:38.482Z,13.14
2022-10-20T04:07:40.643Z,13.08
2022-10-20T04:22:42.416Z,13.16
2022-10-20T04:37:44.226Z,13.18
2022-10-20T04:52:45.986Z,13.14
2022-10-20T05:07:47.889Z,13.20
2022-10-20T05:22:49.672Z,13.14
2022-10-20T05:37:51.447Z,13.19
2022-10-20T05:52:53.293Z,13.54
2022-10-20T06:07:55.294Z,13.38
2022-10-20T06:22:57.073Z,13.30
2022-10-20T06:37:58.853Z,13.08
2022-10-20T06:53:00.609Z,12.88
2022-10-20T07:08:02.483Z,12.67
2022-10-20T07:23:04.277Z,12.36
2022-10-20T07:38:06.064Z,12.04
2022-10-20T07:53:09.124Z,11.66
2022-10-20T08:08:12.380Z,11.38
2022-10-20T08:23:15.693Z,11.38
2022-10-20T08:38:18.640Z,11.39
2022-10-20T08:53:24.255Z,11.76
2022-10-20T09:08:32.999Z,11.42
2022-10-20T09:23:53.891Z,11.07
2022-10-20T09:38:57.295Z,11.13
2022-10-20T09:54:08.235Z,10.95
2022-10-20T10:09:32.211Z,11.02
2022-10-20T10:24:43.361Z,10.75
2022-10-20T10:39:45.835Z,10.51
2022-10-20T10:55:09.984Z,10.53
2022-10-20T11:10:20.095Z,10.58
2022-10-20T11:25:34.689Z,10.38
2022-10-20T11:40:50.759Z,10.03
2022-10-20T11:56:21.783Z,10.25
2022-10-20T12:12:11.831Z,10.19
2022-10-20T12:27:21.192Z,9.79
2022-10-20T12:42:36.591Z,9.49
2022-10-20T12:57:44.268Z,9.42
2022-10-20T13:12:46.463Z,9.40
2022-10-20T13:27:49.947Z,9.27
2022-10-20T13:43:08.148Z,8.96
2022-10-20T13:58:34.716Z,8.67
2022-10-20T14:13:37.185Z,8.54
2022-10-20T14:28:40.354Z,8.65
2022-10-20T14:43:49.115Z,8.63
2022-10-20T14:59:01.395Z,8.78
2022-10-20T15:14:03.543Z,9.10
2022-10-20T15:29:13.696Z,9.15
2022-10-20T15:44:29.443Z,9.37
2022-10-20T15:59:32.786Z,9.39
2022-10-20T16:14:39.110Z,9.48
2022-10-20T16:29:45.169Z,9.44
2022-10-20T16:44:50.315Z,9.49
2022-10-20T16:59:55.070Z,9.43
2022-10-20T17:14:57.376Z,9.57
2022-10-20T17:30:00.737Z,9.42
2022-10-20T17:45:05.325Z,9.68
2022-10-20T18:00:12.850Z,9.85
2022-10-20T18:15:16.493Z,9.72
2022-10-20T18:30:19.822Z,9.70
2022-10-20T18:45:25.155Z,10.03
2022-10-20T19:00:30.552Z,10.12
2022-10-20T19:15:36.010Z,10.06
2022-10-20T19:30:38.949Z,10.08
2022-10-20T19:45:47.752Z,10.24
2022-10-20T20:00:57.036Z,10.38
2022-10-20T20:16:08.238Z,10.40
2022-10-20T20:31:13.895Z,10.50
2022-10-20T20:46:18.580Z,10.50
2022-10-20T21:01:26.072Z,10.57
2022-10-20T21:16:36.901Z,10.29
2022-10-20T21:31:41.806Z,10.31
2022-10-20T21:46:51.197Z,10.37
2022-10-20T22:02:01.867Z,10.70
2022-10-20T22:17:09.187Z,10.70
2022-10-20T22:32:15.138Z,10.93
2022-10-20T22:47:16.993Z,11.00
2022-10-20T23:02:20.403Z,11.02
2022-10-20T23:17:24.430Z,11.03
2022-10-20T23:32:30.592Z,11.14
2022-10-20T23:47:32.487Z,11.10
